sensor_id;sensor_type;location;lat;lon;timestamp;temperature;humidity
66096;SHT31;53861;53.422;14.530;2022-09-30T00:00:45;7.08;92.07
66096;SHT31;53861;53.422;14.530;2022-09-30T00:03:14;7.08;91.94
66096;SHT31;53861;53.422;14.530;2022-09-30T00:05:40;7.11;92.07
66096;SHT31;53861;53.422;14.530;2022-09-30T00:08:07;7.11;91.85
66096;SHT31;53861;53.422;14.530;2022-09-30T00:10:34;7.06;91.82
66096;SHT31;53861;53.422;14.530;2022-09-30T00:13:01;7.00;91.56
66096;SHT31;53861;53.422;14.530;2022-09-30T00:15:28;7.03;91.95
66096;SHT31;53861;53.422;14.530;2022-09-30T00:17:55;6.99;92.02
66096;SHT31;53861;53.422;14.530;2022-09-30T00:20:23;6.99;92.13
66096;SHT31;53861;53.422;14.530;2022-09-30T00:22:50;7.03;92.21
66096;SHT31;53861;53.422;14.530;2022-09-30T00:25:17;6.99;91.90
66096;SHT31;53861;53.422;14.530;2022-09-30T00:27:43;7.03;91.79
66096;SHT31;53861;53.422;14.530;2022-09-30T00:30:10;6.92;91.56
66096;SHT31;53861;53.422;14.530;2022-09-30T00:32:37;6.92;91.93
66096;SHT31;53861;53.422;14.530;2022-09-30T00:35:04;6.89;91.95
66096;SHT31;53861;53.422;14.530;2022-09-30T00:37:33;7.00;92.91
66096;SHT31;53861;53.422;14.530;2022-09-30T00:39:59;7.00;92.14
66096;SHT31;53861;53.422;14.530;2022-09-30T00:42:26;6.84;91.26
66096;SHT31;53861;53.422;14.530;2022-09-30T00:44:54;6.71;91.23
66096;SHT31;53861;53.422;14.530;2022-09-30T00:47:27;6.66;91.95
66096;SHT31;53861;53.422;14.530;2022-09-30T00:49:55;6.63;91.93
66096;SHT31;53861;53.422;14.530;2022-09-30T00:52:24;6.66;92.03
66096;SHT31;53861;53.422;14.530;2022-09-30T00:54:55;6.66;92.17
66096;SHT31;53861;53.422;14.530;2022-09-30T00:57:24;6.65;92.37
66096;SHT31;53861;53.422;14.530;2022-09-30T00:59:51;6.59;92.23
66096;SHT31;53861;53.422;14.530;2022-09-30T01:02:18;6.63;91.97
66096;SHT31;53861;53.422;14.530;2022-09-30T01:04:45;6.59;91.80
66096;SHT31;53861;53.422;14.530;2022-09-30T01:07:12;6.50;92.05
66096;SHT31;53861;53.422;14.530;2022-09-30T01:09:40;6.52;91.94
66096;SHT31;53861;53.422;14.530;2022-09-30T01:12:09;6.56;92.20
66096;SHT31;53861;53.422;14.530;2022-09-30T01:14:37;6.48;91.86
66096;SHT31;53861;53.422;14.530;2022-09-30T01:17:07;6.45;92.44
66096;SHT31;53861;53.422;14.530;2022-09-30T01:19:47;6.42;92.53
66096;SHT31;53861;53.422;14.530;2022-09-30T01:28:10;6.31;91.96
66096;SHT31;53861;53.422;14.530;2022-09-30T01:30:51;6.29;92.14
66096;SHT31;53861;53.422;14.530;2022-09-30T01:33:24;6.24;91.95
66096;SHT31;53861;53.422;14.530;2022-09-30T01:36:03;6.28;92.04
66096;SHT31;53861;53.422;14.530;2022-09-30T01:38:35;6.20;92.21
66096;SHT31;53861;53.422;14.530;2022-09-30T01:41:07;6.12;91.85
66096;SHT31;53861;53.422;14.530;2022-09-30T01:43:38;6.07;91.80
66096;SHT31;53861;53.422;14.530;2022-09-30T01:46:12;6.02;92.25
66096;SHT31;53861;53.422;14.530;2022-09-30T01:48:45;6.08;92.55
66096;SHT31;53861;53.422;14.530;2022-09-30T01:51:16;6.08;92.48
66096;SHT31;53861;53.422;14.530;2022-09-30T01:53:47;6.11;92.24
66096;SHT31;53861;53.422;14.530;2022-09-30T01:56:16;6.10;92.10
66096;SHT31;53861;53.422;14.530;2022-09-30T01:58:49;6.10;92.28
66096;SHT31;53861;53.422;14.530;2022-09-30T02:01:20;6.15;92.18
66096;SHT31;53861;53.422;14.530;2022-09-30T02:03:50;6.02;91.64
66096;SHT31;53861;53.422;14.530;2022-09-30T02:06:19;5.94;91.95
66096;SHT31;53861;53.422;14.530;2022-09-30T02:08:49;6.00;92.26
66096;SHT31;53861;53.422;14.530;2022-09-30T02:11:17;5.93;92.14
66096;SHT31;53861;53.422;14.530;2022-09-30T02:13:46;5.97;92.17
66096;SHT31;53861;53.422;14.530;2022-09-30T02:16:16;5.91;91.99
66096;SHT31;53861;53.422;14.530;2022-09-30T02:18:49;5.86;92.17
66096;SHT31;53861;53.422;14.530;2022-09-30T02:21:18;5.87;92.18
66096;SHT31;53861;53.422;14.530;2022-09-30T02:23:46;5.83;92.14
66096;SHT31;53861;53.422;14.530;2022-09-30T02:26:16;5.71;92.15
66096;SHT31;53861;53.422;14.530;2022-09-30T02:28:45;5.70;92.17
66096;SHT31;53861;53.422;14.530;2022-09-30T02:31:13;5.78;92.31
66096;SHT31;53861;53.422;14.530;2022-09-30T02:33:41;5.70;91.71
66096;SHT31;53861;53.422;14.530;2022-09-30T02:36:13;5.73;92.08
66096;SHT31;53861;53.422;14.530;2022-09-30T02:38:43;5.74;91.83
66096;SHT31;53861;53.422;14.530;2022-09-30T02:41:14;5.64;91.66
66096;SHT31;53861;53.422;14.530;2022-09-30T02:43:41;5.54;91.94
66096;SHT31;53861;53.422;14.530;2022-09-30T02:46:09;5.54;92.05
66096;SHT31;53861;53.422;14.530;2022-09-30T02:48:42;5.56;92.07
66096;SHT31;53861;53.422;14.530;2022-09-30T02:51:10;5.56;91.92
66096;SHT31;53861;53.422;14.530;2022-09-30T02:53:42;5.56;91.88
66096;SHT31;53861;53.422;14.530;2022-09-30T02:56:13;5.57;91.86
66096;SHT31;53861;53.422;14.530;2022-09-30T02:58:43;5.53;91.79
66096;SHT31;53861;53.422;14.530;2022-09-30T03:01:12;5.50;91.54
66096;SHT31;53861;53.422;14.530;2022-09-30T03:03:39;5.51;91.71
66096;SHT31;53861;53.422;14.530;2022-09-30T03:06:08;5.51;91.81
66096;SHT31;53861;53.422;14.530;2022-09-30T03:08:35;5.54;91.67
66096;SHT31;53861;53.422;14.530;2022-09-30T03:11:03;5.60;91.91
66096;SHT31;53861;53.422;14.530;2022-09-30T03:13:43;5.66;92.05
66096;SHT31;53861;53.422;14.530;2022-09-30T03:16:15;5.70;91.99
66096;SHT31;53861;53.422;14.530;2022-09-30T03:18:51;5.66;91.38
66096;SHT31;53861;53.422;14.530;2022-09-30T03:21:25;5.75;91.94
66096;SHT31;53861;53.422;14.530;2022-09-30T03:24:08;5.80;91.59
66096;SHT31;53861;53.422;14.530;2022-09-30T03:26:43;5.93;92.30
66096;SHT31;53861;53.422;14.530;2022-09-30T03:29:15;6.05;92.50
66096;SHT31;53861;53.422;14.530;2022-09-30T03:31:48;6.11;92.42
66096;SHT31;53861;53.422;14.530;2022-09-30T03:34:18;6.18;92.58
66096;SHT31;53861;53.422;14.530;2022-09-30T03:36:49;6.22;92.52
66096;SHT31;53861;53.422;14.530;2022-09-30T03:39:20;6.22;92.07
66096;SHT31;53861;53.422;14.530;2022-09-30T03:41:52;6.17;92.04
66096;SHT31;53861;53.422;14.530;2022-09-30T03:44:21;6.18;92.40
66096;SHT31;53861;53.422;14.530;2022-09-30T03:46:50;6.11;92.31
66096;SHT31;53861;53.422;14.530;2022-09-30T03:49:18;6.04;92.11
66096;SHT31;53861;53.422;14.530;2022-09-30T03:51:47;6.04;92.39
66096;SHT31;53861;53.422;14.530;2022-09-30T03:54:14;5.95;92.36
66096;SHT31;53861;53.422;14.530;2022-09-30T03:56:41;5.94;92.60
66096;SHT31;53861;53.422;14.530;2022-09-30T03:59:11;5.94;92.32
66096;SHT31;53861;53.422;14.530;2022-09-30T04:01:38;5.88;92.51
66096;SHT31;53861;53.422;14.530;2022-09-30T04:04:05;5.77;92.38
66096;SHT31;53861;53.422;14.530;2022-09-30T04:06:32;5.83;92.57
66096;SHT31;53861;53.422;14.530;2022-09-30T04:08:59;5.88;93.03
66096;SHT31;53861;53.422;14.530;2022-09-30T04:11:26;5.91;92.91
66096;SHT31;53861;53.422;14.530;2022-09-30T04:13:53;5.81;92.81
66096;SHT31;53861;53.422;14.530;2022-09-30T04:16:21;5.75;92.88
66096;SHT31;53861;53.422;14.530;2022-09-30T04:18:48;5.75;93.37
66096;SHT31;53861;53.422;14.530;2022-09-30T04:21:16;5.86;93.96
66096;SHT31;53861;53.422;14.530;2022-09-30T04:23:43;5.88;93.85
66096;SHT31;53861;53.422;14.530;2022-09-30T04:26:11;5.84;93.40
66096;SHT31;53861;53.422;14.530;2022-09-30T04:28:38;5.87;93.85
66096;SHT31;53861;53.422;14.530;2022-09-30T04:31:05;5.93;94.22
66096;SHT31;53861;53.422;14.530;2022-09-30T04:33:33;5.95;93.75
66096;SHT31;53861;53.422;14.530;2022-09-30T04:36:00;5.84;92.89
66096;SHT31;53861;53.422;14.530;2022-09-30T04:38:27;5.81;93.40
66096;SHT31;53861;53.422;14.530;2022-09-30T04:40:55;5.86;93.54
66096;SHT31;53861;53.422;14.530;2022-09-30T04:43:23;5.93;93.60
66096;SHT31;53861;53.422;14.530;2022-09-30T04:45:50;5.83;92.86
66096;SHT31;53861;53.422;14.530;2022-09-30T04:48:18;5.75;93.35
66096;SHT31;53861;53.422;14.530;2022-09-30T04:50:47;5.75;93.04
66096;SHT31;53861;53.422;14.530;2022-09-30T04:53:14;5.78;93.82
66096;SHT31;53861;53.422;14.530;2022-09-30T04:55:41;5.90;94.32
66096;SHT31;53861;53.422;14.530;2022-09-30T04:58:08;5.86;94.15
66096;SHT31;53861;53.422;14.530;2022-09-30T05:00:35;5.81;93.69
66096;SHT31;53861;53.422;14.530;2022-09-30T05:03:02;5.84;94.05
66096;SHT31;53861;53.422;14.530;2022-09-30T05:05:29;5.86;94.29
66096;SHT31;53861;53.422;14.530;2022-09-30T05:07:59;5.88;94.50
66096;SHT31;53861;53.422;14.530;2022-09-30T05:10:26;5.95;94.37
66096;SHT31;53861;53.422;14.530;2022-09-30T05:12:54;5.97;93.63
66096;SHT31;53861;53.422;14.530;2022-09-30T05:15:21;5.90;93.02
66096;SHT31;53861;53.422;14.530;2022-09-30T05:17:48;5.81;93.56
66096;SHT31;53861;53.422;14.530;2022-09-30T05:20:15;5.84;93.81
66096;SHT31;53861;53.422;14.530;2022-09-30T05:22:42;5.97;93.84
66096;SHT31;53861;53.422;14.530;2022-09-30T05:25:10;5.98;93.88
66096;SHT31;53861;53.422;14.530;2022-09-30T05:27:37;6.04;93.19
66096;SHT31;53861;53.422;14.530;2022-09-30T05:30:04;5.98;93.13
66096;SHT31;53861;53.422;14.530;2022-09-30T05:32:32;6.12;93.35
66096;SHT31;53861;53.422;14.530;2022-09-30T05:34:58;6.12;93.65
66096;SHT31;53861;53.422;14.530;2022-09-30T05:37:28;6.12;93.58
66096;SHT31;53861;53.422;14.530;2022-09-30T05:39:54;6.11;92.97
66096;SHT31;53861;53.422;14.530;2022-09-30T05:42:23;6.22;93.70
66096;SHT31;53861;53.422;14.530;2022-09-30T05:44:49;6.25;93.24
66096;SHT31;53861;53.422;14.530;2022-09-30T05:47:19;6.38;93.41
66096;SHT31;53861;53.422;14.530;2022-09-30T05:49:49;6.35;93.19
66096;SHT31;53861;53.422;14.530;2022-09-30T05:52:16;6.48;92.81
66096;SHT31;53861;53.422;14.530;2022-09-30T05:54:44;6.96;91.69
66096;SHT31;53861;53.422;14.530;2022-09-30T05:57:11;7.37;90.20
66096;SHT31;53861;53.422;14.530;2022-09-30T05:59:40;7.13;90.35
66096;SHT31;53861;53.422;14.530;2022-09-30T06:02:09;7.01;91.47
66096;SHT31;53861;53.422;14.530;2022-09-30T06:04:39;7.03;91.77
66096;SHT31;53861;53.422;14.530;2022-09-30T06:07:06;7.95;90.22
66096;SHT31;53861;53.422;14.530;2022-09-30T06:09:33;9.56;83.87
66096;SHT31;53861;53.422;14.530;2022-09-30T06:12:00;10.54;80.97
66096;SHT31;53861;53.422;14.530;2022-09-30T06:14:27;11.41;77.41
66096;SHT31;53861;53.422;14.530;2022-09-30T06:16:55;12.17;76.23
66096;SHT31;53861;53.422;14.530;2022-09-30T06:19:24;12.83;74.85
66096;SHT31;53861;53.422;14.530;2022-09-30T06:21:55;13.55;73.34
66096;SHT31;53861;53.422;14.530;2022-09-30T06:24:24;13.78;71.30
66096;SHT31;53861;53.422;14.530;2022-09-30T06:26:51;14.18;70.40
66096;SHT31;53861;53.422;14.530;2022-09-30T06:29:18;14.53;69.28
66096;SHT31;53861;53.422;14.530;2022-09-30T06:31:45;14.88;67.97
66096;SHT31;53861;53.422;14.530;2022-09-30T06:34:14;14.64;71.17
66096;SHT31;53861;53.422;14.530;2022-09-30T06:36:41;14.98;67.98
66096;SHT31;53861;53.422;14.530;2022-09-30T06:39:10;15.31;66.90
66096;SHT31;53861;53.422;14.530;2022-09-30T06:41:40;15.58;66.40
66096;SHT31;53861;53.422;14.530;2022-09-30T06:44:09;15.48;66.96
66096;SHT31;53861;53.422;14.530;2022-09-30T06:46:36;15.76;66.54
66096;SHT31;53861;53.422;14.530;2022-09-30T06:49:03;16.23;65.30
66096;SHT31;53861;53.422;14.530;2022-09-30T06:51:32;16.03;64.21
66096;SHT31;53861;53.422;14.530;2022-09-30T06:54:00;16.40;66.74
66096;SHT31;53861;53.422;14.530;2022-09-30T06:56:30;16.87;66.27
66096;SHT31;53861;53.422;14.530;2022-09-30T06:58:57;17.45;62.19
66096;SHT31;53861;53.422;14.530;2022-09-30T07:01:24;17.50;63.71
66096;SHT31;53861;53.422;14.530;2022-09-30T07:03:52;17.62;64.93
66096;SHT31;53861;53.422;14.530;2022-09-30T07:06:22;17.70;61.96
66096;SHT31;53861;53.422;14.530;2022-09-30T07:08:52;18.25;58.02
66096;SHT31;53861;53.422;14.530;2022-09-30T07:11:21;17.38;59.80
66096;SHT31;53861;53.422;14.530;2022-09-30T07:13:50;17.96;62.92
66096;SHT31;53861;53.422;14.530;2022-09-30T07:16:20;17.80;62.33
66096;SHT31;53861;53.422;14.530;2022-09-30T07:18:49;19.58;55.06
66096;SHT31;53861;53.422;14.530;2022-09-30T07:21:19;19.06;61.04
66096;SHT31;53861;53.422;14.530;2022-09-30T07:23:46;19.33;60.48
66096;SHT31;53861;53.422;14.530;2022-09-30T07:26:15;19.75;57.65
66096;SHT31;53861;53.422;14.530;2022-09-30T07:28:42;19.68;58.66
66096;SHT31;53861;53.422;14.530;2022-09-30T07:31:10;19.36;58.03
66096;SHT31;53861;53.422;14.530;2022-09-30T07:33:37;18.45;56.88
66096;SHT31;53861;53.422;14.530;2022-09-30T07:36:05;19.10;58.96
66096;SHT31;53861;53.422;14.530;2022-09-30T07:38:34;18.37;57.65
66096;SHT31;53861;53.422;14.530;2022-09-30T07:41:02;19.63;58.72
66096;SHT31;53861;53.422;14.530;2022-09-30T07:43:32;20.46;53.70
66096;SHT31;53861;53.422;14.530;2022-09-30T07:46:04;20.63;51.55
66096;SHT31;53861;53.422;14.530;2022-09-30T07:48:31;20.36;54.58
66096;SHT31;53861;53.422;14.530;2022-09-30T07:51:15;19.07;57.14
66096;SHT31;53861;53.422;14.530;2022-09-30T07:53:43;19.47;55.63
66096;SHT31;53861;53.422;14.530;2022-09-30T07:56:10;21.07;58.61
66096;SHT31;53861;53.422;14.530;2022-09-30T07:58:39;21.19;52.65
66096;SHT31;53861;53.422;14.530;2022-09-30T08:01:06;20.80;56.00
66096;SHT31;53861;53.422;14.530;2022-09-30T08:03:33;21.51;54.13
66096;SHT31;53861;53.422;14.530;2022-09-30T08:06:03;22.08;49.60
66096;SHT31;53861;53.422;14.530;2022-09-30T08:08:30;21.59;51.68
66096;SHT31;53861;53.422;14.530;2022-09-30T08:10:57;21.93;51.39
66096;SHT31;53861;53.422;14.530;2022-09-30T08:13:24;22.03;54.97
66096;SHT31;53861;53.422;14.530;2022-09-30T08:15:52;21.86;51.23
66096;SHT31;53861;53.422;14.530;2022-09-30T08:18:19;22.20;50.49
66096;SHT31;53861;53.422;14.530;2022-09-30T08:20:46;22.86;55.43
66096;SHT31;53861;53.422;14.530;2022-09-30T08:23:13;23.19;52.18
66096;SHT31;53861;53.422;14.530;2022-09-30T08:25:40;22.73;49.36
66096;SHT31;53861;53.422;14.530;2022-09-30T08:28:07;22.57;51.82
66096;SHT31;53861;53.422;14.530;2022-09-30T08:30:34;21.91;51.39
66096;SHT31;53861;53.422;14.530;2022-09-30T08:33:02;23.14;48.09
66096;SHT31;53861;53.422;14.530;2022-09-30T08:35:29;23.80;50.26
66096;SHT31;53861;53.422;14.530;2022-09-30T08:37:56;23.29;46.33
66096;SHT31;53861;53.422;14.530;2022-09-30T08:40:23;24.39;44.71
66096;SHT31;53861;53.422;14.530;2022-09-30T08:43:02;22.63;48.69
66096;SHT31;53861;53.422;14.530;2022-09-30T08:45:35;23.58;46.35
66096;SHT31;53861;53.422;14.530;2022-09-30T08:48:07;24.13;47.71
66096;SHT31;53861;53.422;14.530;2022-09-30T08:50:40;24.14;47.75
66096;SHT31;53861;53.422;14.530;2022-09-30T08:53:13;24.95;43.02
66096;SHT31;53861;53.422;14.530;2022-09-30T08:55:41;24.67;50.78
66096;SHT31;53861;53.422;14.530;2022-09-30T08:58:13;25.49;46.80
66096;SHT31;53861;53.422;14.530;2022-09-30T09:00:40;25.28;43.75
66096;SHT31;53861;53.422;14.530;2022-09-30T09:03:09;24.70;48.68
66096;SHT31;53861;53.422;14.530;2022-09-30T09:05:38;26.31;45.28
66096;SHT31;53861;53.422;14.530;2022-09-30T09:08:14;26.21;48.37
66096;SHT31;53861;53.422;14.530;2022-09-30T09:10:45;26.82;46.47
66096;SHT31;53861;53.422;14.530;2022-09-30T09:13:18;26.76;45.87
66096;SHT31;53861;53.422;14.530;2022-09-30T09:15:53;26.89;46.65
66096;SHT31;53861;53.422;14.530;2022-09-30T09:18:38;27.33;43.50
66096;SHT31;53861;53.422;14.530;2022-09-30T09:21:12;27.45;46.23
66096;SHT31;53861;53.422;14.530;2022-09-30T09:23:43;26.40;43.49
66096;SHT31;53861;53.422;14.530;2022-09-30T09:26:10;27.51;38.97
66096;SHT31;53861;53.422;14.530;2022-09-30T09:28:39;25.72;45.10
66096;SHT31;53861;53.422;14.530;2022-09-30T09:31:10;25.69;43.70
66096;SHT31;53861;53.422;14.530;2022-09-30T09:33:42;25.43;42.55
66096;SHT31;53861;53.422;14.530;2022-09-30T09:36:13;25.61;41.33
66096;SHT31;53861;53.422;14.530;2022-09-30T09:38:51;25.41;44.69
66096;SHT31;53861;53.422;14.530;2022-09-30T09:41:24;25.67;41.44
66096;SHT31;53861;53.422;14.530;2022-09-30T09:43:58;25.73;41.25
66096;SHT31;53861;53.422;14.530;2022-09-30T09:46:26;24.84;40.69
66096;SHT31;53861;53.422;14.530;2022-09-30T09:51:59;25.70;43.56
66096;SHT31;53861;53.422;14.530;2022-09-30T09:54:27;25.67;40.71
66096;SHT31;53861;53.422;14.530;2022-09-30T09:56:55;26.68;44.56
66096;SHT31;53861;53.422;14.530;2022-09-30T09:59:33;26.43;41.38
66096;SHT31;53861;53.422;14.530;2022-09-30T10:02:00;26.64;39.09
66096;SHT31;53861;53.422;14.530;2022-09-30T10:04:28;26.74;41.51
66096;SHT31;53861;53.422;14.530;2022-09-30T10:06:59;26.98;38.65
66096;SHT31;53861;53.422;14.530;2022-09-30T10:09:28;25.90;42.49
66096;SHT31;53861;53.422;14.530;2022-09-30T10:14:39;26.45;39.07
66096;SHT31;53861;53.422;14.530;2022-09-30T10:17:16;28.51;36.81
66096;SHT31;53861;53.422;14.530;2022-09-30T10:19:46;27.30;41.85
66096;SHT31;53861;53.422;14.530;2022-09-30T10:22:19;26.76;39.52
66096;SHT31;53861;53.422;14.530;2022-09-30T10:24:50;26.44;39.25
66096;SHT31;53861;53.422;14.530;2022-09-30T10:27:27;25.86;41.09
66096;SHT31;53861;53.422;14.530;2022-09-30T10:29:55;27.78;38.34
66096;SHT31;53861;53.422;14.530;2022-09-30T10:32:22;27.56;39.49
66096;SHT31;53861;53.422;14.530;2022-09-30T10:34:53;26.78;37.59
66096;SHT31;53861;53.422;14.530;2022-09-30T10:37:22;27.27;41.51
66096;SHT31;53861;53.422;14.530;2022-09-30T10:39:51;28.25;37.05
66096;SHT31;53861;53.422;14.530;2022-09-30T10:42:21;26.51;40.40
66096;SHT31;53861;53.422;14.530;2022-09-30T10:44:50;27.12;36.52
66096;SHT31;53861;53.422;14.530;2022-09-30T10:47:19;27.26;36.65
66096;SHT31;53861;53.422;14.530;2022-09-30T10:49:47;26.79;36.58
66096;SHT31;53861;53.422;14.530;2022-09-30T10:52:17;27.80;34.57
66096;SHT31;53861;53.422;14.530;2022-09-30T10:54:49;27.08;35.86
66096;SHT31;53861;53.422;14.530;2022-09-30T10:57:18;28.37;37.02
66096;SHT31;53861;53.422;14.530;2022-09-30T10:59:46;27.68;35.12
66096;SHT31;53861;53.422;14.530;2022-09-30T11:02:19;28.00;31.04
66096;SHT31;53861;53.422;14.530;2022-09-30T11:04:49;28.02;32.07
66096;SHT31;53861;53.422;14.530;2022-09-30T11:07:20;27.39;38.42
66096;SHT31;53861;53.422;14.530;2022-09-30T11:09:53;27.08;37.08
66096;SHT31;53861;53.422;14.530;2022-09-30T11:12:24;27.84;33.00
66096;SHT31;53861;53.422;14.530;2022-09-30T11:14:56;26.96;35.88
66096;SHT31;53861;53.422;14.530;2022-09-30T11:17:30;26.95;32.62
66096;SHT31;53861;53.422;14.530;2022-09-30T11:20:01;26.04;35.84
66096;SHT31;53861;53.422;14.530;2022-09-30T11:22:34;26.56;34.76
66096;SHT31;53861;53.422;14.530;2022-09-30T11:25:02;26.94;36.06
66096;SHT31;53861;53.422;14.530;2022-09-30T11:27:32;27.06;38.82
66096;SHT31;53861;53.422;14.530;2022-09-30T11:30:02;25.84;36.05
66096;SHT31;53861;53.422;14.530;2022-09-30T11:32:33;26.56;35.47
66096;SHT31;53861;53.422;14.530;2022-09-30T11:35:02;26.62;36.09
66096;SHT31;53861;53.422;14.530;2022-09-30T11:37:41;27.59;36.48
66096;SHT31;53861;53.422;14.530;2022-09-30T11:40:22;26.79;34.59
66096;SHT31;53861;53.422;14.530;2022-09-30T11:42:53;26.30;33.01
66096;SHT31;53861;53.422;14.530;2022-09-30T11:45:24;26.08;34.93
66096;SHT31;53861;53.422;14.530;2022-09-30T11:48:00;26.03;34.05
66096;SHT31;53861;53.422;14.530;2022-09-30T11:50:38;25.50;40.28
66096;SHT31;53861;53.422;14.530;2022-09-30T11:53:10;25.92;40.81
66096;SHT31;53861;53.422;14.530;2022-09-30T11:58:25;26.16;37.86
66096;SHT31;53861;53.422;14.530;2022-09-30T12:00:56;24.81;38.03
66096;SHT31;53861;53.422;14.530;2022-09-30T12:03:26;25.01;38.44
66096;SHT31;53861;53.422;14.530;2022-09-30T12:05:55;24.50;38.20
66096;SHT31;53861;53.422;14.530;2022-09-30T12:08:23;25.42;39.70
66096;SHT31;53861;53.422;14.530;2022-09-30T12:10:53;25.46;35.98
66096;SHT31;53861;53.422;14.530;2022-09-30T12:13:22;26.38;38.75
66096;SHT31;53861;53.422;14.530;2022-09-30T12:15:53;26.31;35.99
66096;SHT31;53861;53.422;14.530;2022-09-30T12:18:23;26.01;35.23
66096;SHT31;53861;53.422;14.530;2022-09-30T12:20:52;26.17;36.86
66096;SHT31;53861;53.422;14.530;2022-09-30T12:23:22;26.82;38.95
66096;SHT31;53861;53.422;14.530;2022-09-30T12:25:51;26.96;33.50
66096;SHT31;53861;53.422;14.530;2022-09-30T12:28:23;26.62;35.52
66096;SHT31;53861;53.422;14.530;2022-09-30T12:31:15;26.21;35.81
66096;SHT31;53861;53.422;14.530;2022-09-30T12:33:49;25.69;38.43
66096;SHT31;53861;53.422;14.530;2022-09-30T12:36:25;26.72;36.41
66096;SHT31;53861;53.422;14.530;2022-09-30T12:39:08;25.49;36.85
66096;SHT31;53861;53.422;14.530;2022-09-30T12:41:48;25.67;36.81
66096;SHT31;53861;53.422;14.530;2022-09-30T12:47:13;24.54;40.63
66096;SHT31;53861;53.422;14.530;2022-09-30T12:49:43;23.96;38.07
66096;SHT31;53861;53.422;14.530;2022-09-30T12:52:13;24.10;41.39
66096;SHT31;53861;53.422;14.530;2022-09-30T12:54:42;24.56;39.10
66096;SHT31;53861;53.422;14.530;2022-09-30T12:57:09;22.81;37.83
66096;SHT31;53861;53.422;14.530;2022-09-30T12:59:37;22.97;42.78
66096;SHT31;53861;53.422;14.530;2022-09-30T13:02:05;23.11;40.86
66096;SHT31;53861;53.422;14.530;2022-09-30T13:04:35;23.08;43.53
66096;SHT31;53861;53.422;14.530;2022-09-30T13:07:15;23.19;39.37
66096;SHT31;53861;53.422;14.530;2022-09-30T13:09:55;23.38;40.59
66096;SHT31;53861;53.422;14.530;2022-09-30T13:12:23;23.01;42.36
66096;SHT31;53861;53.422;14.530;2022-09-30T13:17:34;22.16;43.46
66096;SHT31;53861;53.422;14.530;2022-09-30T13:20:47;22.64;42.93
66096;SHT31;53861;53.422;14.530;2022-09-30T13:22:59;22.47;40.55
66096;SHT31;53861;53.422;14.530;2022-09-30T13:25:26;22.54;42.88
66096;SHT31;53861;53.422;14.530;2022-09-30T13:28:24;22.74;44.77
66096;SHT31;53861;53.422;14.530;2022-09-30T13:33:40;21.92;39.37
66096;SHT31;53861;53.422;14.530;2022-09-30T13:36:17;21.86;42.98
66096;SHT31;53861;53.422;14.530;2022-09-30T13:38:44;21.71;43.68
66096;SHT31;53861;53.422;14.530;2022-09-30T13:41:16;21.92;42.72
66096;SHT31;53861;53.422;14.530;2022-09-30T13:43:46;22.06;43.48
66096;SHT31;53861;53.422;14.530;2022-09-30T13:46:16;22.26;43.01
66096;SHT31;53861;53.422;14.530;2022-09-30T13:49:02;22.32;38.61
66096;SHT31;53861;53.422;14.530;2022-09-30T13:51:32;21.47;42.94
66096;SHT31;53861;53.422;14.530;2022-09-30T13:54:01;21.54;44.45
66096;SHT31;53861;53.422;14.530;2022-09-30T13:56:33;21.35;42.47
66096;SHT31;53861;53.422;14.530;2022-09-30T13:59:10;21.07;41.99
66096;SHT31;53861;53.422;14.530;2022-09-30T14:01:53;21.10;41.28
66096;SHT31;53861;53.422;14.530;2022-09-30T14:04:35;20.62;43.40
66096;SHT31;53861;53.422;14.530;2022-09-30T14:07:09;20.79;43.28
66096;SHT31;53861;53.422;14.530;2022-09-30T14:09:49;20.43;42.92
66096;SHT31;53861;53.422;14.530;2022-09-30T14:12:25;20.62;46.11
66096;SHT31;53861;53.422;14.530;2022-09-30T14:20:50;20.62;47.55
66096;SHT31;53861;53.422;14.530;2022-09-30T14:23:25;20.32;45.14
66096;SHT31;53861;53.422;14.530;2022-09-30T14:26:06;20.46;49.45
66096;SHT31;53861;53.422;14.530;2022-09-30T14:28:36;19.91;44.77
66096;SHT31;53861;53.422;14.530;2022-09-30T14:31:04;19.85;42.84
66096;SHT31;53861;53.422;14.530;2022-09-30T14:33:34;19.98;46.83
66096;SHT31;53861;53.422;14.530;2022-09-30T14:36:05;19.91;46.18
66096;SHT31;53861;53.422;14.530;2022-09-30T14:38:35;19.98;45.83
66096;SHT31;53861;53.422;14.530;2022-09-30T14:41:03;19.53;45.97
66096;SHT31;53861;53.422;14.530;2022-09-30T14:43:34;19.38;44.39
66096;SHT31;53861;53.422;14.530;2022-09-30T14:46:03;19.43;47.25
66096;SHT31;53861;53.422;14.530;2022-09-30T14:48:31;19.47;47.98
66096;SHT31;53861;53.422;14.530;2022-09-30T14:51:02;19.58;50.46
66096;SHT31;53861;53.422;14.530;2022-09-30T14:53:31;19.05;46.15
66096;SHT31;53861;53.422;14.530;2022-09-30T14:56:00;19.22;49.12
66096;SHT31;53861;53.422;14.530;2022-09-30T14:58:27;19.10;48.58
66096;SHT31;53861;53.422;14.530;2022-09-30T15:00:56;19.02;46.02
66096;SHT31;53861;53.422;14.530;2022-09-30T15:03:23;18.77;45.80
66096;SHT31;53861;53.422;14.530;2022-09-30T15:05:51;18.83;45.63
66096;SHT31;53861;53.422;14.530;2022-09-30T15:08:18;18.65;48.86
66096;SHT31;53861;53.422;14.530;2022-09-30T15:10:46;18.37;48.33
66096;SHT31;53861;53.422;14.530;2022-09-30T15:13:15;18.37;51.51
66096;SHT31;53861;53.422;14.530;2022-09-30T15:15:43;18.02;48.93
66096;SHT31;53861;53.422;14.530;2022-09-30T15:18:23;18.15;49.50
66096;SHT31;53861;53.422;14.530;2022-09-30T15:20:50;18.15;48.03
66096;SHT31;53861;53.422;14.530;2022-09-30T15:23:24;18.14;49.59
66096;SHT31;53861;53.422;14.530;2022-09-30T15:25:52;18.17;50.22
66096;SHT31;53861;53.422;14.530;2022-09-30T15:28:21;18.08;49.11
66096;SHT31;53861;53.422;14.530;2022-09-30T15:30:48;18.05;53.14
66096;SHT31;53861;53.422;14.530;2022-09-30T15:33:16;17.89;48.37
66096;SHT31;53861;53.422;14.530;2022-09-30T15:35:44;17.67;51.97
66096;SHT31;53861;53.422;14.530;2022-09-30T15:38:14;17.47;49.96
66096;SHT31;53861;53.422;14.530;2022-09-30T15:40:46;17.30;51.75
66096;SHT31;53861;53.422;14.530;2022-09-30T15:43:29;17.12;52.71
66096;SHT31;53861;53.422;14.530;2022-09-30T15:46:24;17.07;54.90
66096;SHT31;53861;53.422;14.530;2022-09-30T15:48:53;16.84;54.91
66096;SHT31;53861;53.422;14.530;2022-09-30T15:51:27;16.85;53.99
66096;SHT31;53861;53.422;14.530;2022-09-30T15:53:55;16.71;54.53
66096;SHT31;53861;53.422;14.530;2022-09-30T15:56:26;16.64;53.98
66096;SHT31;53861;53.422;14.530;2022-09-30T15:58:57;16.58;55.18
66096;SHT31;53861;53.422;14.530;2022-09-30T16:01:26;16.50;55.55
66096;SHT31;53861;53.422;14.530;2022-09-30T16:03:57;16.33;56.75
66096;SHT31;53861;53.422;14.530;2022-09-30T16:06:26;16.30;55.56
66096;SHT31;53861;53.422;14.530;2022-09-30T16:08:54;16.14;56.51